createdAt,value
2018-10-01T00:00:21.379Z,10.89
2018-10-01T00:01:01.933Z,10.87
2018-10-01T00:01:42.496Z,10.84
2018-10-01T00:02:23.086Z,10.86
2018-10-01T00:03:03.664Z,10.82
2018-10-01T00:03:44.226Z,10.84
2018-10-01T00:04:24.782Z,10.87
2018-10-01T00:05:05.339Z,10.84
2018-10-01T00:05:45.881Z,10.81
2018-10-01T00:06:26.432Z,10.84
2018-10-01T00:07:06.985Z,10.89
2018-10-01T00:07:47.558Z,10.87
2018-10-01T00:08:28.113Z,10.84
2018-10-01T00:09:08.664Z,10.84
2018-10-01T00:09:49.221Z,10.82
2018-10-01T00:10:29.793Z,10.86
2018-10-01T00:11:10.343Z,10.89
2018-10-01T00:11:50.896Z,10.89
2018-10-01T00:12:31.449Z,10.84
2018-10-01T00:13:12.025Z,10.9
2018-10-01T00:13:52.577Z,10.87
2018-10-01T00:14:33.153Z,10.87
2018-10-01T00:15:13.746Z,10.87
2018-10-01T00:15:54.310Z,10.87
2018-10-01T00:16:34.890Z,10.84
2018-10-01T00:17:15.450Z,10.84
2018-10-01T00:17:56.005Z,10.84
2018-10-01T00:18:36.558Z,10.87
2018-10-01T00:19:17.106Z,10.87
2018-10-01T00:19:57.683Z,10.87
2018-10-01T00:20:38.242Z,10.9
2018-10-01T00:21:18.787Z,10.86
2018-10-01T00:21:59.341Z,10.82
2018-10-01T00:22:39.893Z,10.82
2018-10-01T00:23:20.453Z,10.87
2018-10-01T00:24:01.167Z,10.86
2018-10-01T00:24:41.733Z,10.86
2018-10-01T00:25:22.289Z,10.86
2018-10-01T00:26:02.871Z,10.84
2018-10-01T00:26:43.408Z,10.84
2018-10-01T00:27:23.980Z,10.87
2018-10-01T00:28:04.545Z,10.86
2018-10-01T00:28:45.106Z,10.82
2018-10-01T00:29:25.660Z,10.9
2018-10-01T00:30:06.219Z,10.87
2018-10-01T00:30:46.767Z,10.89
2018-10-01T00:31:27.319Z,10.89
2018-10-01T00:32:07.871Z,10.82
2018-10-01T00:32:48.430Z,10.87
2018-10-01T00:33:28.983Z,10.87
2018-10-01T00:34:09.530Z,10.82
2018-10-01T00:34:50.087Z,10.84
2018-10-01T00:35:30.649Z,10.78
2018-10-01T00:36:11.262Z,10.78
2018-10-01T00:36:51.787Z,10.76
2018-10-01T00:37:32.336Z,10.82
2018-10-01T00:38:12.885Z,10.84
2018-10-01T00:38:53.453Z,10.79
2018-10-01T00:39:34.023Z,10.75
2018-10-01T00:40:14.615Z,10.75
2018-10-01T00:40:55.144Z,10.75
2018-10-01T00:41:35.719Z,10.71
2018-10-01T00:42:16.303Z,10.86
2018-10-01T00:42:56.865Z,10.74
2018-10-01T00:43:37.426Z,10.82
2018-10-01T00:44:17.997Z,10.81
2018-10-01T00:44:58.538Z,10.74
2018-10-01T00:45:39.099Z,10.74
2018-10-01T00:46:19.674Z,10.78
2018-10-01T00:47:00.236Z,10.78
2018-10-01T00:47:40.794Z,10.76
2018-10-01T00:48:21.361Z,10.74
2018-10-01T00:49:01.953Z,10.76
2018-10-01T00:49:42.484Z,10.75
2018-10-01T00:50:23.058Z,10.76
2018-10-01T00:51:03.611Z,10.82
2018-10-01T00:51:44.168Z,10.75
2018-10-01T00:52:24.717Z,10.68
2018-10-01T00:53:05.272Z,10.79
2018-10-01T00:53:45.825Z,10.69
2018-10-01T00:54:26.379Z,10.69
2018-10-01T00:55:06.937Z,10.68
2018-10-01T00:55:47.495Z,10.69
2018-10-01T00:56:28.045Z,10.69
2018-10-01T00:57:08.594Z,10.61
2018-10-01T00:57:49.157Z,10.74
2018-10-01T00:58:29.713Z,10.59
2018-10-01T00:59:10.265Z,10.63
2018-10-01T00:59:50.824Z,10.56
2018-10-01T01:00:31.382Z,10.56
2018-10-01T01:01:11.943Z,10.61
2018-10-01T01:01:52.494Z,10.6
2018-10-01T01:02:33.077Z,10.56
2018-10-01T01:03:14.335Z,10.56
2018-10-01T01:03:54.178Z,10.54
2018-10-01T01:04:34.726Z,10.59
2018-10-01T01:05:15.279Z,10.48
2018-10-01T01:05:55.831Z,10.48
2018-10-01T01:06:36.394Z,10.44
2018-10-01T01:07:16.950Z,10.42
2018-10-01T01:07:57.529Z,10.48
2018-10-01T01:08:38.088Z,10.41
2018-10-01T01:09:18.658Z,10.37
2018-10-01T01:09:59.218Z,10.41
2018-10-01T01:10:39.761Z,10.35
2018-10-01T01:11:20.349Z,10.4
2018-10-01T01:12:00.932Z,10.4
2018-10-01T01:12:41.540Z,10.35
2018-10-01T01:13:22.099Z,10.37
2018-10-01T01:14:02.655Z,10.41
2018-10-01T01:14:43.208Z,10.42
2018-10-01T01:15:23.779Z,10.35
2018-10-01T01:16:04.336Z,10.37
2018-10-01T01:16:44.887Z,10.34
2018-10-01T01:17:25.434Z,10.33
2018-10-01T01:18:05.987Z,10.33
2018-10-01T01:18:46.573Z,10.31
2018-10-01T01:19:27.128Z,10.38
2018-10-01T01:20:07.684Z,10.28
2018-10-01T01:20:48.248Z,10.22
2018-10-01T01:21:28.793Z,10.37
2018-10-01T01:22:09.356Z,10.3
2018-10-01T01:22:49.924Z,10.28
2018-10-01T01:23:30.468Z,10.3
2018-10-01T01:24:11.017Z,10.34
2018-10-01T01:24:51.574Z,10.38
2018-10-01T01:25:32.127Z,10.33
2018-10-01T01:26:12.685Z,10.38
2018-10-01T01:26:53.253Z,10.28
2018-10-01T01:27:33.829Z,10.28
2018-10-01T01:28:14.379Z,10.28
2018-10-01T01:28:54.931Z,10.33
2018-10-01T01:29:35.498Z,10.33
2018-10-01T01:30:16.060Z,10.3
2018-10-01T01:30:56.621Z,10.22
2018-10-01T01:31:37.183Z,10.22
2018-10-01T01:32:17.732Z,10.2
2018-10-01T01:32:58.274Z,10.22
2018-10-01T01:33:38.839Z,10.17
2018-10-01T01:34:19.417Z,10.12
2018-10-01T01:34:59.973Z,10.09
2018-10-01T01:35:40.533Z,10.16
2018-10-01T01:36:21.088Z,10.09
2018-10-01T01:37:01.659Z,10.12
2018-10-01T01:37:42.200Z,10.17
2018-10-01T01:38:22.772Z,10.15
2018-10-01T01:39:03.324Z,10.16
2018-10-01T01:39:43.885Z,10.19
2018-10-01T01:40:24.437Z,10.16
2018-10-01T01:41:05.006Z,10.13
2018-10-01T01:41:45.550Z,10.17
2018-10-01T01:42:26.105Z,10.09
2018-10-01T01:43:06.653Z,10.12
2018-10-01T01:43:47.195Z,10.07
2018-10-01T01:44:27.762Z,10.07
2018-10-01T01:45:08.306Z,10.13
2018-10-01T01:45:48.860Z,10.04
2018-10-01T01:46:29.446Z,10.07
2018-10-01T01:47:10.004Z,10.1
2018-10-01T01:47:50.560Z,10.09
2018-10-01T01:48:31.119Z,10.1
2018-10-01T01:49:11.685Z,10.09
2018-10-01T01:49:52.239Z,10.12
2018-10-01T01:52:05.009Z,10.1
2018-10-01T01:52:45.559Z,10.05
2018-10-01T01:53:26.118Z,10.04
2018-10-01T01:54:06.662Z,9.99
2018-10-01T01:54:47.204Z,10.05
2018-10-01T01:55:27.755Z,9.94
2018-10-01T01:56:08.308Z,10.05
2018-10-01T01:56:48.872Z,10.05
2018-10-01T01:57:29.416Z,9.98
2018-10-01T01:58:09.968Z,10.02
2018-10-01T01:58:50.520Z,9.97
2018-10-01T01:59:31.067Z,9.99
2018-10-01T02:00:11.625Z,9.95
2018-10-01T02:00:52.182Z,9.94
2018-10-01T02:01:32.747Z,9.98
2018-10-01T02:02:13.327Z,9.87
2018-10-01T02:02:53.859Z,9.94
2018-10-01T02:03:34.415Z,9.99
2018-10-01T02:04:14.969Z,9.91
2018-10-01T02:04:55.530Z,9.98
2018-10-01T02:05:36.089Z,9.99
2018-10-01T02:06:16.661Z,9.97
2018-10-01T02:06:57.220Z,9.95
2018-10-01T02:07:37.824Z,9.87
2018-10-01T02:08:18.337Z,9.86
2018-10-01T02:08:58.906Z,9.91
2018-10-01T02:09:39.450Z,9.82
2018-10-01T02:10:20.019Z,9.8
2018-10-01T02:11:00.583Z,9.82
2018-10-01T02:11:41.146Z,9.77
2018-10-01T02:12:21.717Z,9.84
2018-10-01T02:13:02.274Z,9.84
2018-10-01T02:13:42.831Z,9.79
2018-10-01T02:14:23.370Z,9.8
2018-10-01T02:15:03.939Z,9.77
2018-10-01T02:15:44.478Z,9.77
2018-10-01T02:16:25.030Z,9.77
2018-10-01T02:17:05.601Z,9.82
2018-10-01T02:17:46.157Z,9.82
2018-10-01T02:18:26.702Z,9.86
2018-10-01T02:19:07.254Z,9.73
2018-10-01T02:19:47.799Z,9.82
2018-10-01T02:20:28.349Z,9.83
2018-10-01T02:21:08.913Z,9.79
2018-10-01T02:21:49.469Z,9.79
2018-10-01T02:22:30.032Z,9.86
2018-10-01T02:23:10.596Z,9.83
2018-10-01T02:23:51.128Z,9.76
2018-10-01T02:24:31.675Z,9.74
2018-10-01T02:25:12.243Z,9.76
2018-10-01T02:25:52.789Z,9.79
2018-10-01T02:26:33.327Z,9.72
2018-10-01T02:27:13.884Z,9.73
2018-10-01T02:27:54.434Z,9.72
2018-10-01T02:28:34.993Z,9.74
2018-10-01T02:30:12.313Z,9.73
2018-10-01T02:30:52.862Z,9.72
2018-10-01T02:31:33.419Z,9.66
2018-10-01T02:32:13.985Z,9.68
2018-10-01T02:32:54.543Z,9.74
2018-10-01T02:33:35.104Z,9.68
2018-10-01T02:34:15.643Z,9.72
2018-10-01T02:34:56.190Z,9.72
2018-10-01T02:35:36.759Z,9.68
2018-10-01T02:36:17.320Z,9.69
2018-10-01T02:36:57.865Z,9.74
2018-10-01T02:37:38.425Z,9.74
2018-10-01T02:38:18.983Z,9.66
2018-10-01T02:38:59.535Z,9.82
2018-10-01T02:39:40.099Z,9.76
2018-10-01T02:40:20.651Z,9.79
2018-10-01T02:41:01.232Z,9.68
2018-10-01T02:41:41.760Z,9.68
2018-10-01T02:42:22.329Z,9.62
2018-10-01T02:43:02.887Z,9.68
2018-10-01T02:43:43.443Z,9.66
2018-10-01T02:44:23.996Z,9.73
2018-10-01T02:45:04.559Z,9.66
2018-10-01T02:45:45.154Z,9.73
2018-10-01T02:46:25.725Z,9.74
2018-10-01T02:47:06.280Z,9.72
2018-10-01T02:47:46.879Z,9.72
2018-10-01T02:48:27.443Z,9.69
2018-10-01T02:49:07.980Z,9.72
2018-10-01T02:49:48.529Z,9.65
2018-10-01T02:50:29.081Z,9.62
2018-10-01T02:51:09.643Z,9.62
2018-10-01T02:51:50.204Z,9.64
2018-10-01T02:52:30.766Z,9.61
2018-10-01T02:53:11.321Z,9.59
2018-10-01T02:53:51.888Z,9.66
2018-10-01T02:54:32.446Z,9.62
2018-10-01T02:55:12.999Z,9.58
2018-10-01T02:55:53.560Z,9.64
2018-10-01T02:56:34.122Z,9.55
2018-10-01T02:57:14.677Z,9.62
2018-10-01T02:57:55.225Z,9.62
2018-10-01T02:58:35.786Z,9.64
2018-10-01T02:59:16.334Z,9.62
2018-10-01T02:59:56.925Z,9.65
2018-10-01T03:00:37.497Z,9.61
2018-10-01T03:01:18.053Z,9.62
2018-10-01T03:01:58.611Z,9.61
2018-10-01T03:02:39.186Z,9.62
2018-10-01T03:03:19.736Z,9.62
2018-10-01T03:04:00.298Z,9.62
2018-10-01T03:04:40.851Z,9.65
2018-10-01T03:05:21.407Z,9.61
2018-10-01T03:06:01.956Z,9.65
2018-10-01T03:06:42.519Z,9.66
2018-10-01T03:07:23.077Z,9.64
2018-10-01T03:08:03.634Z,9.64
2018-10-01T03:08:44.194Z,9.61
2018-10-01T03:09:24.755Z,9.68
2018-10-01T03:10:05.311Z,9.62
2018-10-01T03:10:45.874Z,9.59
2018-10-01T03:11:26.426Z,9.61
2018-10-01T03:12:07.005Z,9.61
2018-10-01T03:12:47.546Z,9.61
2018-10-01T03:13:28.106Z,9.61
2018-10-01T03:14:08.665Z,9.61
2018-10-01T03:14:49.199Z,9.59
2018-10-01T03:15:29.753Z,9.65
2018-10-01T03:16:10.326Z,9.66
2018-10-01T03:16:50.914Z,9.62
2018-10-01T03:17:31.473Z,9.65
2018-10-01T03:18:12.026Z,9.61
2018-10-01T03:18:52.629Z,9.66
2018-10-01T03:19:33.179Z,9.66
2018-10-01T03:20:13.740Z,9.64
2018-10-01T03:20:54.273Z,9.62
2018-10-01T03:21:34.832Z,9.64
2018-10-01T03:22:15.401Z,9.68
2018-10-01T03:22:55.963Z,9.65
2018-10-01T03:23:36.523Z,9.72
2018-10-01T03:24:17.083Z,9.64
2018-10-01T03:24:57.640Z,9.59
2018-10-01T03:25:38.197Z,9.64
2018-10-01T03:26:18.766Z,9.62
2018-10-01T03:26:59.318Z,9.66
2018-10-01T03:27:39.894Z,9.61
2018-10-01T03:28:20.444Z,9.54
2018-10-01T03:29:01.004Z,9.61
2018-10-01T03:29:41.557Z,9.55
2018-10-01T03:30:22.139Z,9.5
2018-10-01T03:31:02.688Z,9.51
2018-10-01T03:31:43.254Z,9.48
2018-10-01T03:32:23.809Z,9.64
2018-10-01T03:33:04.359Z,9.47
2018-10-01T03:33:44.922Z,9.51
2018-10-01T03:34:25.477Z,9.59
2018-10-01T03:35:06.027Z,9.48
2018-10-01T03:35:46.578Z,9.55
2018-10-01T03:36:27.134Z,9.55
2018-10-01T03:37:07.686Z,9.61
2018-10-01T03:37:48.266Z,9.5
2018-10-01T03:38:28.840Z,9.51
2018-10-01T03:39:09.419Z,9.54
2018-10-01T03:39:49.978Z,9.55
2018-10-01T03:40:30.538Z,9.47
2018-10-01T03:41:11.101Z,9.55
2018-10-01T03:41:51.643Z,9.55
2018-10-01T03:42:32.196Z,9.5
2018-10-01T03:43:12.775Z,9.48
2018-10-01T03:43:53.322Z,9.5
2018-10-01T03:44:33.872Z,9.44
2018-10-01T03:45:14.447Z,9.44
2018-10-01T03:45:54.989Z,9.47
2018-10-01T03:46:35.545Z,9.44
2018-10-01T03:47:16.096Z,9.44
2018-10-01T03:47:56.662Z,9.46
2018-10-01T03:48:37.215Z,9.4
2018-10-01T03:49:17.786Z,9.47
2018-10-01T03:49:58.324Z,9.44
2018-10-01T03:50:38.880Z,9.4
2018-10-01T03:51:19.439Z,9.5
2018-10-01T03:52:00.002Z,9.36
2018-10-01T03:52:40.553Z,9.44
2018-10-01T03:53:21.109Z,9.51
2018-10-01T03:54:01.672Z,9.41
2018-10-01T03:54:42.239Z,9.36
2018-10-01T03:55:22.863Z,9.36
2018-10-01T03:56:03.421Z,9.4
2018-10-01T03:56:43.976Z,9.37
2018-10-01T03:57:24.539Z,9.41
2018-10-01T03:58:05.075Z,9.41
2018-10-01T03:58:48.622Z,9.41
2018-10-01T04:00:36.979Z,9.43
2018-10-01T04:03:04.756Z,9.4
2018-10-01T04:03:45.241Z,9.37
2018-10-01T04:04:25.806Z,9.36
2018-10-01T04:05:06.380Z,9.32
2018-10-01T04:05:46.936Z,9.37
2018-10-01T04:06:27.499Z,9.36
2018-10-01T04:07:08.067Z,9.34
2018-10-01T04:07:48.612Z,9.31
2018-10-01T04:08:29.179Z,9.28
2018-10-01T04:09:09.744Z,9.28
2018-10-01T04:09:50.297Z,9.29
2018-10-01T04:10:30.862Z,9.18
2018-10-01T04:11:11.422Z,9.19
2018-10-01T04:11:51.986Z,9.29
2018-10-01T04:12:32.532Z,9.26
2018-10-01T04:13:13.099Z,9.22
2018-10-01T04:13:53.688Z,9.28
2018-10-01T04:14:34.240Z,9.19
2018-10-01T04:15:14.782Z,9.25
2018-10-01T04:15:55.370Z,9.28
2018-10-01T04:16:35.951Z,9.19
2018-10-01T04:17:16.503Z,9.21
2018-10-01T04:17:57.049Z,9.28
2018-10-01T04:18:37.622Z,9.23
2018-10-01T04:19:18.236Z,9.18
2018-10-01T04:19:58.777Z,9.18
2018-10-01T04:20:39.320Z,9.18
2018-10-01T04:21:19.905Z,9.19
2018-10-01T04:22:00.454Z,9.19
2018-10-01T04:22:41.049Z,9.29
2018-10-01T04:23:21.579Z,9.28
2018-10-01T04:24:02.150Z,9.22
2018-10-01T04:24:42.718Z,9.22
2018-10-01T04:25:23.291Z,9.28
2018-10-01T04:26:03.847Z,9.14
2018-10-01T04:26:44.406Z,9.26
2018-10-01T04:27:24.950Z,9.22
2018-10-01T04:28:05.562Z,9.23
2018-10-01T04:28:46.063Z,9.29
2018-10-01T04:29:26.626Z,9.29
2018-10-01T04:30:07.198Z,9.29
2018-10-01T04:30:47.761Z,9.29
2018-10-01T04:31:28.333Z,9.22
2018-10-01T04:32:08.888Z,9.32
2018-10-01T04:32:49.439Z,9.29
2018-10-01T04:33:30.018Z,9.31
2018-10-01T04:34:10.551Z,9.29
2018-10-01T04:34:51.108Z,9.39
2018-10-01T04:35:31.694Z,9.36
2018-10-01T04:36:12.254Z,9.36
2018-10-01T04:36:52.836Z,9.36
2018-10-01T04:37:33.383Z,9.36
2018-10-01T04:38:13.959Z,9.4
2018-10-01T04:38:54.508Z,9.37
2018-10-01T04:39:35.069Z,9.4
2018-10-01T04:40:15.618Z,9.36
2018-10-01T04:40:56.178Z,9.31
2018-10-01T04:41:36.731Z,9.39
2018-10-01T04:42:17.287Z,9.4
2018-10-01T04:42:57.842Z,9.37
2018-10-01T04:43:38.413Z,9.37
2018-10-01T04:44:18.972Z,9.37
2018-10-01T04:44:59.529Z,9.37
2018-10-01T04:45:40.105Z,9.36
2018-10-01T04:46:20.674Z,9.39
2018-10-01T04:47:01.243Z,9.36
2018-10-01T04:47:41.795Z,9.4
2018-10-01T04:48:22.351Z,9.34
2018-10-01T04:49:02.910Z,9.36
2018-10-01T04:49:43.504Z,9.39
2018-10-01T04:50:24.055Z,9.31
2018-10-01T04:51:04.613Z,9.36
2018-10-01T04:51:45.172Z,9.31
2018-10-01T04:52:25.739Z,9.4
2018-10-01T04:53:06.354Z,9.36
2018-10-01T04:53:46.933Z,9.25
2018-10-01T04:54:27.499Z,9.28
2018-10-01T04:55:08.057Z,9.31
2018-10-01T04:55:48.622Z,9.28
2018-10-01T04:56:29.171Z,9.28
2018-10-01T04:57:09.735Z,9.31
2018-10-01T04:57:50.285Z,9.31
2018-10-01T04:58:30.916Z,9.31
2018-10-01T04:59:11.497Z,9.32
2018-10-01T04:59:52.072Z,9.36
2018-10-01T05:00:32.622Z,9.28
2018-10-01T05:01:13.164Z,9.31
2018-10-01T05:01:53.736Z,9.37
2018-10-01T05:02:34.294Z,9.36
2018-10-01T05:03:14.855Z,9.37
2018-10-01T05:03:55.409Z,9.37
2018-10-01T05:04:35.983Z,9.39
2018-10-01T05:05:16.540Z,9.37
2018-10-01T05:05:57.117Z,9.4
2018-10-01T05:06:37.661Z,9.37
2018-10-01T05:07:18.228Z,9.31
2018-10-01T05:07:58.784Z,9.34
2018-10-01T05:08:39.345Z,9.37
2018-10-01T05:09:20.343Z,9.37
2018-10-01T05:10:00.925Z,9.37
2018-10-01T05:10:41.479Z,9.36
2018-10-01T05:11:22.053Z,9.39
2018-10-01T05:12:02.632Z,9.36
2018-10-01T05:12:43.190Z,9.39
2018-10-01T05:13:23.729Z,9.39
2018-10-01T05:14:04.281Z,9.36
2018-10-01T05:14:44.901Z,9.34
2018-10-01T05:15:25.431Z,9.34
2018-10-01T05:16:05.980Z,9.34
2018-10-01T05:16:46.528Z,9.36
2018-10-01T05:17:27.092Z,9.37
2018-10-01T05:18:07.658Z,9.36
2018-10-01T05:18:48.233Z,9.37
2018-10-01T05:19:28.785Z,9.34
2018-10-01T05:20:09.348Z,9.34
2018-10-01T05:20:49.903Z,9.39
2018-10-01T05:21:30.461Z,9.36
2018-10-01T05:22:11.009Z,9.39
2018-10-01T05:22:51.566Z,9.36
2018-10-01T05:23:32.117Z,9.31
2018-10-01T05:24:12.677Z,9.37
2018-10-01T05:24:53.238Z,9.34
2018-10-01T05:25:33.810Z,9.36
2018-10-01T05:26:14.361Z,9.36
2018-10-01T05:26:54.925Z,9.32
2018-10-01T05:27:35.495Z,9.34
2018-10-01T05:28:16.059Z,9.32
2018-10-01T05:28:56.683Z,9.31
2018-10-01T05:29:37.240Z,9.34
2018-10-01T05:30:17.819Z,9.39
2018-10-01T05:30:58.379Z,9.36
2018-10-01T05:31:38.933Z,9.36
2018-10-01T05:32:19.491Z,9.4
2018-10-01T05:33:00.074Z,9.54
2018-10-01T05:33:40.625Z,9.65
2018-10-01T05:36:50.127Z,10.25
2018-10-01T05:37:30.717Z,10.38
2018-10-01T05:38:11.275Z,10.44
2018-10-01T05:38:51.854Z,10.56
2018-10-01T05:39:32.417Z,10.69
2018-10-01T05:40:12.973Z,10.76
2018-10-01T05:40:53.522Z,10.79
2018-10-01T05:41:34.090Z,10.87
2018-10-01T05:42:14.646Z,11.04
2018-10-01T05:42:55.226Z,10.89
2018-10-01T05:43:35.794Z,10.96
2018-10-01T05:44:16.368Z,11
2018-10-01T05:44:56.923Z,11.05
2018-10-01T05:45:37.462Z,11.11
2018-10-01T05:46:18.026Z,11.12
2018-10-01T05:46:58.572Z,11.25
2018-10-01T05:47:39.125Z,11.32
2018-10-01T05:48:19.673Z,11.35
2018-10-01T05:49:00.237Z,11.3
2018-10-01T05:49:40.781Z,11.41
2018-10-01T05:50:21.327Z,11.41
2018-10-01T05:51:01.869Z,11.37
2018-10-01T05:51:42.417Z,11.5
2018-10-01T05:52:23.017Z,11.47
2018-10-01T05:53:03.570Z,11.51
2018-10-01T05:53:44.134Z,11.52
2018-10-01T05:54:25.124Z,11.54
2018-10-01T05:55:05.410Z,11.54
2018-10-01T05:55:46.152Z,11.66
2018-10-01T05:56:26.717Z,11.69
2018-10-01T05:57:07.281Z,11.59
2018-10-01T05:57:47.983Z,11.65
2018-10-01T05:58:28.426Z,11.7
2018-10-01T05:59:09.027Z,11.72
2018-10-01T05:59:49.529Z,11.69
2018-10-01T06:00:30.120Z,11.7
2018-10-01T06:01:10.693Z,11.62
2018-10-01T06:01:51.279Z,11.72
2018-10-01T06:02:31.851Z,11.8
2018-10-01T06:03:12.481Z,11.86
2018-10-01T06:03:53.068Z,11.88
2018-10-01T06:04:33.629Z,12
2018-10-01T06:05:14.192Z,12.17
2018-10-01T06:05:54.734Z,12.24
2018-10-01T06:06:35.335Z,12.24
2018-10-01T06:07:15.884Z,12.36
2018-10-01T06:07:56.444Z,12.36
2018-10-01T06:08:37.008Z,12.42
2018-10-01T06:09:17.593Z,12.39
2018-10-01T06:09:58.150Z,12.42
2018-10-01T06:10:38.681Z,12.43
2018-10-01T06:11:19.238Z,12.46
2018-10-01T06:11:59.836Z,12.45
2018-10-01T06:12:40.438Z,12.43
2018-10-01T06:13:21.034Z,12.57
2018-10-01T06:14:01.596Z,12.65
2018-10-01T06:14:42.177Z,12.61
2018-10-01T06:15:22.768Z,12.72
2018-10-01T06:16:03.327Z,12.82
2018-10-01T06:16:43.878Z,12.72
2018-10-01T06:17:24.465Z,12.8
2018-10-01T06:18:05.040Z,12.93
2018-10-01T06:18:45.631Z,12.9
2018-10-01T06:19:26.192Z,12.94
2018-10-01T06:20:06.764Z,13.01
2018-10-01T06:20:47.316Z,13.05
2018-10-01T06:21:27.902Z,13.08
2018-10-01T06:22:08.477Z,13.16
2018-10-01T06:22:49.039Z,13.16
2018-10-01T06:23:29.592Z,13.23
2018-10-01T06:24:10.159Z,13.22
2018-10-01T06:24:50.720Z,13.27
2018-10-01T06:25:31.275Z,13.23
2018-10-01T06:26:11.856Z,13.23
2018-10-01T06:26:52.452Z,13.16
2018-10-01T06:27:33.125Z,13.2
2018-10-01T06:28:13.681Z,13.22
2018-10-01T06:28:54.242Z,13.23
2018-10-01T06:29:34.781Z,13.2
2018-10-01T06:30:15.357Z,13.19
2018-10-01T06:30:55.909Z,13.22
2018-10-01T06:31:36.471Z,13.31
2018-10-01T06:32:17.032Z,13.33
2018-10-01T06:32:57.614Z,13.33
2018-10-01T06:33:38.168Z,13.31
2018-10-01T06:34:18.731Z,13.35
2018-10-01T06:34:59.295Z,13.3
2018-10-01T06:35:39.860Z,13.39
2018-10-01T06:36:20.442Z,13.39
2018-10-01T06:37:00.971Z,13.35
2018-10-01T06:37:41.546Z,13.41
2018-10-01T06:38:22.105Z,13.35
2018-10-01T06:39:02.660Z,13.31
2018-10-01T06:39:43.219Z,13.38
2018-10-01T06:40:23.783Z,13.37
2018-10-01T06:41:04.338Z,13.38
2018-10-01T06:41:44.917Z,13.39
2018-10-01T06:42:25.437Z,13.39
2018-10-01T06:43:05.992Z,13.38
2018-10-01T06:43:46.564Z,13.41
2018-10-01T06:44:27.105Z,13.47
2018-10-01T06:45:07.653Z,13.53
2018-10-01T06:45:48.271Z,13.54
2018-10-01T06:46:28.828Z,13.46
2018-10-01T06:47:09.397Z,13.59
2018-10-01T06:47:50.007Z,13.57
2018-10-01T06:48:30.567Z,13.6
2018-10-01T06:49:11.194Z,13.62
2018-10-01T06:49:51.804Z,13.7
2018-10-01T06:50:32.367Z,13.62
2018-10-01T06:51:13.175Z,13.72
2018-10-01T06:51:53.721Z,13.71
2018-10-01T06:52:34.330Z,13.79
2018-10-01T06:53:14.881Z,13.78
2018-10-01T06:53:55.441Z,13.79
2018-10-01T06:54:35.991Z,13.68
2018-10-01T06:55:16.551Z,13.71
2018-10-01T06:55:57.117Z,13.71
2018-10-01T06:56:37.674Z,13.75
2018-10-01T06:57:18.224Z,13.77
2018-10-01T06:57:58.843Z,13.83
2018-10-01T06:58:39.699Z,13.81
2018-10-01T06:59:20.269Z,13.71
2018-10-01T07:00:00.834Z,13.65
2018-10-01T07:00:41.414Z,13.44
2018-10-01T07:01:22.087Z,13.42
2018-10-01T07:02:02.547Z,13.38
2018-10-01T07:02:43.098Z,13.2
2018-10-01T07:03:23.746Z,13.22
2018-10-01T07:04:04.293Z,13.05
2018-10-01T07:04:44.860Z,12.94
2018-10-01T07:05:25.489Z,12.85
2018-10-01T07:06:06.063Z,12.8
2018-10-01T07:06:46.625Z,12.7
2018-10-01T07:07:27.244Z,12.62
2018-10-01T07:08:07.812Z,12.54
2018-10-01T07:08:48.377Z,12.55
2018-10-01T07:09:29.042Z,12.42
2018-10-01T07:10:09.547Z,12.45
2018-10-01T07:10:50.138Z,12.39
2018-10-01T07:11:30.795Z,12.36
2018-10-01T07:12:11.251Z,12.36
2018-10-01T07:12:51.810Z,12.29
2018-10-01T07:13:32.512Z,12.36
2018-10-01T07:14:13.071Z,12.31
2018-10-01T07:14:53.631Z,12.35
2018-10-01T07:15:34.191Z,12.36
2018-10-01T07:16:14.770Z,12.46
2018-10-01T07:16:55.432Z,12.4
2018-10-01T07:17:35.891Z,12.5
2018-10-01T07:18:16.452Z,12.65
2018-10-01T07:18:56.997Z,12.7
2018-10-01T07:19:37.570Z,12.82
2018-10-01T07:20:18.151Z,13.04
2018-10-01T07:20:58.767Z,13.12
2018-10-01T07:21:39.331Z,13.39
2018-10-01T07:22:19.921Z,13.52
2018-10-01T07:23:00.528Z,13.7
2018-10-01T07:23:41.065Z,13.9
2018-10-01T07:24:21.672Z,14.05
2018-10-01T07:25:02.234Z,14.33
2018-10-01T07:25:42.836Z,14.51
2018-10-01T07:26:23.417Z,14.69
2018-10-01T07:27:03.954Z,14.94
2018-10-01T07:27:44.517Z,15.18
2018-10-01T07:28:25.077Z,15.35
2018-10-01T07:29:05.629Z,15.44
2018-10-01T07:29:46.250Z,15.54
2018-10-01T07:30:26.819Z,15.57
2018-10-01T07:31:07.389Z,15.62
2018-10-01T07:31:47.955Z,15.58
2018-10-01T07:32:28.512Z,15.58
2018-10-01T07:33:09.103Z,15.64
2018-10-01T07:33:49.699Z,15.65
2018-10-01T07:34:30.250Z,15.58
2018-10-01T07:35:10.812Z,15.47
2018-10-01T07:35:51.379Z,15.35
2018-10-01T07:36:31.947Z,15.29
2018-10-01T07:37:12.492Z,15.09
2018-10-01T07:37:53.081Z,14.96
2018-10-01T07:38:33.632Z,14.82
2018-10-01T07:39:14.189Z,14.59
2018-10-01T07:39:54.774Z,14.43
2018-10-01T07:40:35.343Z,14.43
2018-10-01T07:41:15.897Z,14.35
2018-10-01T07:41:56.447Z,14.22
2018-10-01T07:42:37.009Z,14.08
2018-10-01T07:43:17.570Z,14.07
2018-10-01T07:43:58.118Z,13.87
2018-10-01T07:44:38.674Z,13.86
2018-10-01T07:45:19.906Z,13.79
2018-10-01T07:46:01.738Z,13.78
2018-10-01T07:46:41.927Z,13.7
2018-10-01T07:47:22.510Z,13.67
2018-10-01T07:48:03.073Z,13.62
2018-10-01T07:48:43.623Z,13.49
2018-10-01T07:49:24.197Z,13.53
2018-10-01T07:50:04.747Z,13.42
2018-10-01T07:50:45.367Z,13.37
2018-10-01T07:51:25.912Z,13.39
2018-10-01T07:52:09.710Z,13.38
2018-10-01T07:52:50.199Z,13.22
2018-10-01T07:53:31.229Z,13.25
2018-10-01T07:54:14.697Z,13.25
2018-10-01T07:54:55.255Z,13.12
2018-10-01T07:55:35.840Z,13.16
2018-10-01T07:56:17.811Z,13.11
2018-10-01T07:56:58.415Z,13.03
2018-10-01T07:57:39.000Z,13.16
2018-10-01T07:58:19.672Z,13.09
2018-10-01T07:59:00.468Z,13.16
2018-10-01T07:59:41.184Z,13.12
2018-10-01T08:00:21.684Z,13.12
2018-10-01T08:01:02.294Z,13.12
2018-10-01T08:01:42.818Z,13.05
2018-10-01T08:02:23.436Z,13.11
2018-10-01T08:03:03.926Z,13.04
2018-10-01T08:03:44.474Z,13.04
2018-10-01T08:04:25.031Z,13.08
2018-10-01T08:05:05.601Z,13.08
2018-10-01T08:05:46.164Z,13.04
2018-10-01T08:06:26.729Z,13.08
2018-10-01T08:07:07.282Z,13.05
2018-10-01T08:07:47.847Z,13.08
2018-10-01T08:08:28.454Z,13.08
2018-10-01T08:09:08.970Z,13.05
2018-10-01T08:09:49.521Z,13.03
2018-10-01T08:10:30.084Z,13.04
2018-10-01T08:11:10.634Z,13.05
2018-10-01T08:11:51.219Z,13.03
2018-10-01T08:12:31.786Z,13.08
2018-10-01T08:13:12.346Z,13.03
2018-10-01T08:13:52.907Z,13.08
2018-10-01T08:14:33.543Z,13.09
2018-10-01T08:15:14.054Z,13.08
2018-10-01T08:15:54.679Z,13.09
2018-10-01T08:16:35.166Z,13.12
2018-10-01T08:17:15.721Z,13.05
2018-10-01T08:17:56.289Z,13.11
2018-10-01T08:18:36.843Z,13.03
2018-10-01T08:19:17.410Z,13.09
2018-10-01T08:19:57.994Z,13.04
2018-10-01T08:20:38.640Z,13.09
2018-10-01T08:21:19.106Z,13.05
2018-10-01T08:21:59.703Z,13.08
2018-10-01T08:22:40.249Z,13.05
2018-10-01T08:23:20.827Z,13.05
2018-10-01T08:24:01.386Z,13.03
2018-10-01T08:24:41.947Z,13.05
2018-10-01T08:25:22.522Z,13.03
2018-10-01T08:26:03.175Z,13.04
2018-10-01T08:26:43.783Z,12.97
2018-10-01T08:27:24.202Z,12.97
2018-10-01T08:28:04.794Z,12.91
2018-10-01T08:28:45.336Z,12.98
2018-10-01T08:29:25.988Z,12.91
2018-10-01T08:30:06.461Z,12.93
2018-10-01T08:30:47.054Z,12.86
2018-10-01T08:31:27.617Z,12.93
2018-10-01T08:32:08.249Z,13.01
2018-10-01T08:32:48.757Z,13.11
2018-10-01T08:33:29.334Z,13.23
2018-10-01T08:34:09.896Z,13.39
2018-10-01T08:34:50.451Z,13.37
2018-10-01T08:35:31.072Z,13.44
2018-10-01T08:36:11.580Z,13.65
2018-10-01T08:36:52.171Z,13.75
2018-10-01T08:37:32.730Z,13.83
2018-10-01T08:38:13.474Z,13.97
2018-10-01T08:38:53.859Z,14.03
2018-10-01T08:39:35.078Z,14.04
2018-10-01T08:40:15.644Z,14.04
2018-10-01T08:40:56.315Z,14.05
2018-10-01T08:41:36.945Z,13.99
2018-10-01T08:42:17.452Z,14.04
2018-10-01T08:42:58.018Z,14.11
2018-10-01T08:43:38.578Z,14.14
2018-10-01T08:44:19.192Z,14.3
2018-10-01T08:44:59.721Z,14.22
2018-10-01T08:45:40.284Z,14.37
2018-10-01T08:46:20.840Z,14.37
2018-10-01T08:47:01.424Z,14.36
2018-10-01T08:47:42.031Z,14.44
2018-10-01T08:48:22.540Z,14.47
2018-10-01T08:49:03.132Z,14.53
2018-10-01T08:49:43.706Z,14.43
2018-10-01T08:50:24.274Z,14.47
2018-10-01T08:51:04.822Z,14.37
2018-10-01T08:51:45.489Z,14.36
2018-10-01T08:52:25.933Z,14.37
2018-10-01T08:53:06.558Z,14.35
2018-10-01T08:53:47.081Z,14.3
2018-10-01T08:54:27.690Z,14.3
2018-10-01T08:55:08.266Z,14.43
2018-10-01T08:55:48.819Z,14.35
2018-10-01T08:56:29.459Z,14.37
2018-10-01T08:57:09.938Z,14.43
2018-10-01T08:57:50.489Z,14.35
2018-10-01T08:58:31.064Z,14.44